FDY67 KMEM-KHRO
Flight info
| Callsign | FDY67 |
|---|---|
| Flight time | 1h 20m |
| Altitude | 8000 |
| Route | ZUMIT5 FOXOM |
| Aircraft | C208/L-SDFGR/C |
Departure
| Time | 2026-05-05 21:26 |
|---|---|
| Airport | Memphis International Airport (KMEM) |
Arrival
| Time | 2026-05-05 22:47 |
|---|---|
| Airport | Boone County Airport (KHRO) |
| Time | Latitude | Longitude | Altitude | Speed | Heading |
|---|---|---|---|---|---|
| 2026-05-05 21:10 | 35.05418 | -89.97865 | 326 ft | 0 kts | 92° |
| 2026-05-05 21:23 | 35.05428 | -89.97878 | 327 ft | 6 kts | 304° |
| 2026-05-05 21:24 | 35.05472 | -89.97869 | 327 ft | 10 kts | 47° |
| 2026-05-05 21:24 | 35.05460 | -89.97767 | 327 ft | 15 kts | 120° |
| 2026-05-05 21:24 | 35.05424 | -89.97648 | 323 ft | 17 kts | 122° |
| 2026-05-05 21:24 | 35.05346 | -89.97617 | 324 ft | 18 kts | 178° |
| 2026-05-05 21:25 | 35.05069 | -89.97609 | 320 ft | 61 kts | 179° |
| 2026-05-05 21:25 | 35.04553 | -89.97587 | 372 ft | 82 kts | 176° |
| 2026-05-05 21:25 | 35.03967 | -89.97512 | 529 ft | 85 kts | 171° |
| 2026-05-05 21:25 | 35.03341 | -89.97538 | 664 ft | 95 kts | 191° |
| 2026-05-05 21:26 | 35.02699 | -89.97731 | 911 ft | 98 kts | 189° |
| 2026-05-05 21:26 | 35.02014 | -89.97995 | 1081 ft | 105 kts | 204° |
| 2026-05-05 21:26 | 35.01477 | -89.98576 | 1344 ft | 105 kts | 231° |
| 2026-05-05 21:26 | 35.01248 | -89.99458 | 1504 ft | 116 kts | 255° |
| 2026-05-05 21:27 | 35.01244 | -90.00444 | 1745 ft | 120 kts | 271° |
| 2026-05-05 21:27 | 35.01578 | -90.01383 | 2057 ft | 123 kts | 280° |
| 2026-05-05 21:27 | 35.01961 | -90.02328 | 2307 ft | 124 kts | 281° |
| 2026-05-05 21:27 | 35.02309 | -90.03252 | 2612 ft | 116 kts | 277° |
| 2026-05-05 21:28 | 35.02540 | -90.04147 | 2897 ft | 107 kts | 267° |
| 2026-05-05 21:28 | 35.02678 | -90.05020 | 3116 ft | 108 kts | 266° |
| 2026-05-05 21:28 | 35.02831 | -90.05952 | 3268 ft | 115 kts | 269° |
| 2026-05-05 21:28 | 35.03021 | -90.06868 | 3562 ft | 106 kts | 266° |
| 2026-05-05 21:29 | 35.03135 | -90.07740 | 3791 ft | 103 kts | 263° |
| 2026-05-05 21:29 | 35.03282 | -90.08608 | 4010 ft | 105 kts | 267° |
| 2026-05-05 21:29 | 35.03443 | -90.09465 | 4218 ft | 103 kts | 268° |
| 2026-05-05 21:29 | 35.03612 | -90.10311 | 4424 ft | 102 kts | 268° |
| 2026-05-05 21:30 | 35.03782 | -90.11142 | 4629 ft | 100 kts | 268° |
| 2026-05-05 21:30 | 35.03949 | -90.11964 | 4820 ft | 101 kts | 269° |
| 2026-05-05 21:30 | 35.04121 | -90.12794 | 5010 ft | 101 kts | 269° |
| 2026-05-05 21:30 | 35.04296 | -90.13635 | 5205 ft | 103 kts | 269° |
| 2026-05-05 21:31 | 35.04471 | -90.14485 | 5407 ft | 104 kts | 270° |
| 2026-05-05 21:31 | 35.04652 | -90.15352 | 5567 ft | 108 kts | 270° |
| 2026-05-05 21:31 | 35.04840 | -90.16259 | 5707 ft | 115 kts | 270° |
| 2026-05-05 21:31 | 35.05041 | -90.17230 | 5843 ft | 121 kts | 271° |
| 2026-05-05 21:32 | 35.05252 | -90.18233 | 5979 ft | 123 kts | 272° |
| 2026-05-05 21:32 | 35.05464 | -90.19240 | 6113 ft | 122 kts | 271° |
| 2026-05-05 21:32 | 35.05673 | -90.20243 | 6236 ft | 122 kts | 271° |
| 2026-05-05 21:32 | 35.05881 | -90.21238 | 6353 ft | 121 kts | 271° |
| 2026-05-05 21:33 | 35.06089 | -90.22236 | 6470 ft | 121 kts | 272° |
| 2026-05-05 21:33 | 35.06294 | -90.23231 | 6585 ft | 122 kts | 272° |
| 2026-05-05 21:33 | 35.06504 | -90.24231 | 6701 ft | 122 kts | 272° |
| 2026-05-05 21:33 | 35.06710 | -90.25230 | 6822 ft | 121 kts | 272° |
| 2026-05-05 21:34 | 35.06916 | -90.26222 | 6944 ft | 121 kts | 272° |
| 2026-05-05 21:34 | 35.07123 | -90.27217 | 7062 ft | 121 kts | 272° |
| 2026-05-05 21:34 | 35.07328 | -90.28209 | 7182 ft | 120 kts | 272° |
| 2026-05-05 21:34 | 35.07533 | -90.29194 | 7299 ft | 119 kts | 272° |
| 2026-05-05 21:35 | 35.07735 | -90.30172 | 7418 ft | 119 kts | 272° |
| 2026-05-05 21:35 | 35.07938 | -90.31147 | 7538 ft | 118 kts | 272° |
| 2026-05-05 21:35 | 35.08139 | -90.32120 | 7659 ft | 118 kts | 272° |
| 2026-05-05 21:35 | 35.08339 | -90.33086 | 7780 ft | 118 kts | 272° |
| 2026-05-05 21:36 | 35.08538 | -90.34052 | 7901 ft | 117 kts | 272° |
| 2026-05-05 21:36 | 35.08738 | -90.35018 | 8017 ft | 117 kts | 272° |
| 2026-05-05 21:36 | 35.08941 | -90.36016 | 8025 ft | 124 kts | 273° |
| 2026-05-05 21:36 | 35.09157 | -90.37059 | 8034 ft | 129 kts | 273° |
| 2026-05-05 21:37 | 35.09380 | -90.38133 | 8036 ft | 132 kts | 274° |
| 2026-05-05 21:37 | 35.09606 | -90.39230 | 8032 ft | 134 kts | 274° |
| 2026-05-05 21:37 | 35.09836 | -90.40341 | 8034 ft | 136 kts | 274° |
| 2026-05-05 21:37 | 35.10068 | -90.41462 | 8033 ft | 136 kts | 274° |
| 2026-05-05 21:38 | 35.10301 | -90.42590 | 8032 ft | 137 kts | 275° |
| 2026-05-05 21:38 | 35.10533 | -90.43720 | 8031 ft | 138 kts | 274° |
| 2026-05-05 21:38 | 35.10766 | -90.44853 | 8032 ft | 138 kts | 274° |
| 2026-05-05 21:38 | 35.10998 | -90.45985 | 8030 ft | 138 kts | 274° |
| 2026-05-05 21:39 | 35.11232 | -90.47122 | 8027 ft | 138 kts | 275° |
| 2026-05-05 21:39 | 35.11468 | -90.48261 | 8027 ft | 138 kts | 275° |
| 2026-05-05 21:39 | 35.11701 | -90.49400 | 8027 ft | 138 kts | 275° |
| 2026-05-05 21:39 | 35.11936 | -90.50543 | 8026 ft | 139 kts | 275° |
| 2026-05-05 21:40 | 35.12167 | -90.51672 | 8024 ft | 139 kts | 275° |
| 2026-05-05 21:40 | 35.12401 | -90.52814 | 8022 ft | 139 kts | 274° |
| 2026-05-05 21:40 | 35.12636 | -90.53959 | 8009 ft | 139 kts | 274° |
| 2026-05-05 21:40 | 35.12869 | -90.55101 | 8009 ft | 139 kts | 274° |
| 2026-05-05 21:41 | 35.13103 | -90.56245 | 8011 ft | 139 kts | 274° |
| 2026-05-05 21:41 | 35.13338 | -90.57385 | 8010 ft | 139 kts | 274° |
| 2026-05-05 21:41 | 35.13572 | -90.58527 | 8010 ft | 138 kts | 274° |
| 2026-05-05 21:41 | 35.13805 | -90.59668 | 8011 ft | 138 kts | 274° |
| 2026-05-05 21:42 | 35.14039 | -90.60810 | 8011 ft | 139 kts | 274° |
| 2026-05-05 21:42 | 35.14273 | -90.61952 | 8009 ft | 139 kts | 274° |
| 2026-05-05 21:42 | 35.14507 | -90.63097 | 8008 ft | 139 kts | 274° |
| 2026-05-05 21:42 | 35.14741 | -90.64247 | 8009 ft | 139 kts | 274° |
| 2026-05-05 21:43 | 35.14975 | -90.65393 | 8009 ft | 139 kts | 274° |
| 2026-05-05 21:43 | 35.15208 | -90.66545 | 8008 ft | 139 kts | 274° |
| 2026-05-05 21:43 | 35.15442 | -90.67694 | 8007 ft | 139 kts | 274° |
| 2026-05-05 21:43 | 35.15676 | -90.68843 | 8013 ft | 139 kts | 274° |
| 2026-05-05 21:44 | 35.15909 | -90.69991 | 8015 ft | 139 kts | 274° |
| 2026-05-05 21:44 | 35.16144 | -90.71141 | 8014 ft | 140 kts | 274° |
| 2026-05-05 21:44 | 35.16378 | -90.72294 | 8013 ft | 140 kts | 275° |
| 2026-05-05 21:44 | 35.16613 | -90.73451 | 8013 ft | 140 kts | 275° |
| 2026-05-05 21:45 | 35.16847 | -90.74607 | 8013 ft | 140 kts | 275° |
| 2026-05-05 21:45 | 35.17083 | -90.75767 | 8012 ft | 141 kts | 275° |
| 2026-05-05 21:45 | 35.17316 | -90.76923 | 8007 ft | 139 kts | 275° |
| 2026-05-05 21:45 | 35.17549 | -90.78068 | 8010 ft | 138 kts | 275° |
| 2026-05-05 21:46 | 35.17823 | -90.79182 | 8002 ft | 142 kts | 284° |
| 2026-05-05 21:46 | 35.18323 | -90.80241 | 8000 ft | 144 kts | 289° |
| 2026-05-05 21:46 | 35.18827 | -90.81288 | 7999 ft | 143 kts | 288° |
| 2026-05-05 21:46 | 35.19331 | -90.82346 | 7997 ft | 142 kts | 288° |
| 2026-05-05 21:47 | 35.19819 | -90.83376 | 7997 ft | 142 kts | 288° |
| 2026-05-05 21:47 | 35.20315 | -90.84423 | 7996 ft | 142 kts | 288° |
| 2026-05-05 21:47 | 35.20811 | -90.85469 | 7993 ft | 142 kts | 288° |
| 2026-05-05 21:47 | 35.21304 | -90.86512 | 7993 ft | 141 kts | 288° |
| 2026-05-05 21:48 | 35.21798 | -90.87556 | 7993 ft | 142 kts | 288° |
| 2026-05-05 21:48 | 35.22291 | -90.88598 | 7993 ft | 142 kts | 288° |
| 2026-05-05 21:48 | 35.22787 | -90.89646 | 7994 ft | 142 kts | 288° |
| 2026-05-05 21:48 | 35.23282 | -90.90692 | 7993 ft | 142 kts | 288° |
| 2026-05-05 21:49 | 35.23777 | -90.91739 | 7990 ft | 142 kts | 288° |
| 2026-05-05 21:49 | 35.24272 | -90.92787 | 7989 ft | 142 kts | 288° |
| 2026-05-05 21:49 | 35.24767 | -90.93834 | 8012 ft | 143 kts | 288° |
| 2026-05-05 21:49 | 35.25266 | -90.94893 | 8010 ft | 144 kts | 288° |
| 2026-05-05 21:50 | 35.25769 | -90.95958 | 8011 ft | 145 kts | 288° |
| 2026-05-05 21:50 | 35.26272 | -90.97023 | 8011 ft | 145 kts | 288° |
| 2026-05-05 21:50 | 35.26777 | -90.98090 | 8011 ft | 145 kts | 288° |
| 2026-05-05 21:50 | 35.27282 | -90.99162 | 8010 ft | 146 kts | 288° |
| 2026-05-05 21:51 | 35.27789 | -91.00237 | 8010 ft | 146 kts | 288° |
| 2026-05-05 21:51 | 35.28294 | -91.01308 | 8010 ft | 145 kts | 288° |
| 2026-05-05 21:51 | 35.28799 | -91.02380 | 8010 ft | 145 kts | 288° |
| 2026-05-05 21:51 | 35.29303 | -91.03451 | 8011 ft | 146 kts | 288° |
| 2026-05-05 21:52 | 35.30317 | -91.05602 | 8007 ft | 146 kts | 288° |
| 2026-05-05 21:52 | 35.30824 | -91.06677 | 8008 ft | 146 kts | 288° |
| 2026-05-05 21:52 | 35.31330 | -91.07755 | 8008 ft | 146 kts | 288° |
| 2026-05-05 21:53 | 35.31837 | -91.08832 | 8004 ft | 146 kts | 288° |
| 2026-05-05 21:53 | 35.32345 | -91.09910 | 8003 ft | 146 kts | 288° |
| 2026-05-05 21:53 | 35.32850 | -91.10985 | 8002 ft | 146 kts | 288° |
| 2026-05-05 21:53 | 35.33354 | -91.12059 | 8002 ft | 145 kts | 288° |
| 2026-05-05 21:54 | 35.33858 | -91.13131 | 8003 ft | 146 kts | 288° |
| 2026-05-05 21:54 | 35.34363 | -91.14207 | 8005 ft | 146 kts | 288° |
| 2026-05-05 21:54 | 35.34861 | -91.15266 | 8010 ft | 145 kts | 289° |
| 2026-05-05 21:54 | 35.35365 | -91.16339 | 8009 ft | 145 kts | 289° |
| 2026-05-05 21:55 | 35.35867 | -91.17408 | 8009 ft | 144 kts | 288° |
| 2026-05-05 21:55 | 35.36373 | -91.18487 | 8008 ft | 144 kts | 288° |
| 2026-05-05 21:55 | 35.36865 | -91.19537 | 8009 ft | 144 kts | 288° |
| 2026-05-05 21:55 | 35.37370 | -91.20614 | 8008 ft | 144 kts | 288° |
| 2026-05-05 21:56 | 35.37861 | -91.21661 | 8005 ft | 143 kts | 288° |
| 2026-05-05 21:56 | 35.38358 | -91.22723 | 8004 ft | 144 kts | 288° |
| 2026-05-05 21:56 | 35.38857 | -91.23787 | 8005 ft | 144 kts | 288° |
| 2026-05-05 21:56 | 35.39355 | -91.24850 | 8005 ft | 144 kts | 288° |
| 2026-05-05 21:57 | 35.39853 | -91.25915 | 8005 ft | 144 kts | 288° |
| 2026-05-05 21:57 | 35.40351 | -91.26979 | 8005 ft | 144 kts | 288° |
| 2026-05-05 21:57 | 35.40849 | -91.28044 | 8004 ft | 144 kts | 288° |
| 2026-05-05 21:57 | 35.41347 | -91.29109 | 8004 ft | 144 kts | 288° |
| 2026-05-05 21:58 | 35.41845 | -91.30174 | 8003 ft | 144 kts | 288° |
| 2026-05-05 21:58 | 35.42343 | -91.31238 | 8003 ft | 144 kts | 288° |
| 2026-05-05 21:58 | 35.42839 | -91.32300 | 8002 ft | 144 kts | 288° |
| 2026-05-05 21:58 | 35.43335 | -91.33364 | 8002 ft | 143 kts | 288° |
| 2026-05-05 21:59 | 35.43830 | -91.34423 | 8002 ft | 143 kts | 288° |
| 2026-05-05 21:59 | 35.44325 | -91.35484 | 8002 ft | 143 kts | 288° |
| 2026-05-05 21:59 | 35.44822 | -91.36547 | 8006 ft | 143 kts | 288° |
| 2026-05-05 21:59 | 35.45316 | -91.37607 | 8000 ft | 143 kts | 288° |
| 2026-05-05 22:00 | 35.45811 | -91.38667 | 7999 ft | 143 kts | 288° |
| 2026-05-05 22:00 | 35.46304 | -91.39725 | 7999 ft | 143 kts | 288° |
| 2026-05-05 22:00 | 35.46798 | -91.40784 | 7998 ft | 143 kts | 288° |
| 2026-05-05 22:00 | 35.47291 | -91.41843 | 7996 ft | 143 kts | 288° |
| 2026-05-05 22:01 | 35.47784 | -91.42903 | 7997 ft | 143 kts | 288° |
| 2026-05-05 22:01 | 35.48278 | -91.43963 | 7997 ft | 143 kts | 288° |
| 2026-05-05 22:01 | 35.48773 | -91.45027 | 7997 ft | 144 kts | 288° |
| 2026-05-05 22:01 | 35.49268 | -91.46091 | 8008 ft | 144 kts | 288° |
| 2026-05-05 22:02 | 35.49599 | -91.46803 | 8003 ft | 146 kts | 288° |
| 2026-05-05 22:02 | 35.50108 | -91.47899 | 8000 ft | 146 kts | 288° |
| 2026-05-05 22:02 | 35.50608 | -91.48969 | 8000 ft | 147 kts | 288° |
| 2026-05-05 22:02 | 35.51113 | -91.50059 | 8001 ft | 147 kts | 288° |
| 2026-05-05 22:03 | 35.51622 | -91.51153 | 8000 ft | 148 kts | 288° |
| 2026-05-05 22:03 | 35.52132 | -91.52251 | 8000 ft | 148 kts | 288° |
| 2026-05-05 22:03 | 35.52640 | -91.53349 | 7997 ft | 147 kts | 288° |
| 2026-05-05 22:03 | 35.53149 | -91.54441 | 7997 ft | 147 kts | 288° |
| 2026-05-05 22:04 | 35.53656 | -91.55531 | 7998 ft | 147 kts | 288° |
| 2026-05-05 22:04 | 35.54160 | -91.56625 | 7993 ft | 147 kts | 288° |
| 2026-05-05 22:04 | 35.54665 | -91.57709 | 7990 ft | 146 kts | 288° |
| 2026-05-05 22:04 | 35.55166 | -91.58788 | 7991 ft | 145 kts | 288° |
| 2026-05-05 22:05 | 35.55665 | -91.59865 | 7986 ft | 145 kts | 288° |
| 2026-05-05 22:05 | 35.56163 | -91.60943 | 7985 ft | 145 kts | 288° |
| 2026-05-05 22:05 | 35.56662 | -91.62018 | 7985 ft | 145 kts | 288° |
| 2026-05-05 22:05 | 35.57160 | -91.63095 | 7984 ft | 145 kts | 288° |
| 2026-05-05 22:06 | 35.57658 | -91.64170 | 7986 ft | 145 kts | 288° |
| 2026-05-05 22:06 | 35.58155 | -91.65245 | 7987 ft | 145 kts | 288° |
| 2026-05-05 22:06 | 35.58656 | -91.66325 | 7982 ft | 146 kts | 288° |
| 2026-05-05 22:06 | 35.59156 | -91.67402 | 7984 ft | 145 kts | 288° |
| 2026-05-05 22:07 | 35.59652 | -91.68481 | 7985 ft | 145 kts | 288° |
| 2026-05-05 22:07 | 35.60149 | -91.69560 | 7984 ft | 146 kts | 287° |
| 2026-05-05 22:07 | 35.60653 | -91.70642 | 7981 ft | 146 kts | 289° |
| 2026-05-05 22:07 | 35.61156 | -91.71708 | 7983 ft | 143 kts | 287° |
| 2026-05-05 22:08 | 35.61636 | -91.72778 | 7982 ft | 143 kts | 287° |
| 2026-05-05 22:08 | 35.62130 | -91.73844 | 7983 ft | 144 kts | 288° |
| 2026-05-05 22:08 | 35.62628 | -91.74913 | 7984 ft | 144 kts | 287° |
| 2026-05-05 22:08 | 35.63115 | -91.75985 | 7981 ft | 144 kts | 287° |
| 2026-05-05 22:09 | 35.63610 | -91.77057 | 7979 ft | 144 kts | 287° |
| 2026-05-05 22:09 | 35.64103 | -91.78125 | 7982 ft | 144 kts | 288° |
| 2026-05-05 22:09 | 35.64598 | -91.79198 | 7980 ft | 144 kts | 288° |
| 2026-05-05 22:09 | 35.65092 | -91.80269 | 7980 ft | 144 kts | 287° |
| 2026-05-05 22:10 | 35.65586 | -91.81342 | 7976 ft | 144 kts | 287° |
| 2026-05-05 22:10 | 35.66079 | -91.82412 | 7977 ft | 144 kts | 287° |
| 2026-05-05 22:10 | 35.66569 | -91.83480 | 7977 ft | 144 kts | 287° |
| 2026-05-05 22:10 | 35.67064 | -91.84553 | 7979 ft | 144 kts | 288° |
| 2026-05-05 22:11 | 35.67557 | -91.85624 | 7980 ft | 144 kts | 288° |
| 2026-05-05 22:11 | 35.68049 | -91.86697 | 7979 ft | 144 kts | 288° |
| 2026-05-05 22:11 | 35.68545 | -91.87775 | 7971 ft | 145 kts | 288° |
| 2026-05-05 22:11 | 35.69038 | -91.88855 | 7966 ft | 144 kts | 287° |
| 2026-05-05 22:12 | 35.69530 | -91.89926 | 7970 ft | 144 kts | 288° |
| 2026-05-05 22:12 | 35.70025 | -91.90995 | 7979 ft | 144 kts | 288° |
| 2026-05-05 22:12 | 35.70517 | -91.92066 | 7976 ft | 144 kts | 287° |
| 2026-05-05 22:12 | 35.71005 | -91.93132 | 7976 ft | 142 kts | 288° |
| 2026-05-05 22:13 | 35.71489 | -91.94188 | 7974 ft | 142 kts | 288° |
| 2026-05-05 22:13 | 35.71975 | -91.95249 | 7973 ft | 142 kts | 288° |
| 2026-05-05 22:13 | 35.72461 | -91.96310 | 7970 ft | 142 kts | 288° |
| 2026-05-05 22:13 | 35.72949 | -91.97367 | 7973 ft | 143 kts | 288° |
| 2026-05-05 22:14 | 35.73437 | -91.98437 | 7972 ft | 143 kts | 288° |
| 2026-05-05 22:14 | 35.73922 | -91.99499 | 7972 ft | 143 kts | 289° |
| 2026-05-05 22:14 | 35.74415 | -92.00579 | 7968 ft | 146 kts | 290° |
| 2026-05-05 22:14 | 35.74902 | -92.01657 | 7967 ft | 147 kts | 290° |
| 2026-05-05 22:15 | 35.75398 | -92.02746 | 7968 ft | 147 kts | 290° |
| 2026-05-05 22:15 | 35.75909 | -92.03836 | 7968 ft | 147 kts | 289° |
| 2026-05-05 22:15 | 35.76419 | -92.04929 | 7965 ft | 148 kts | 290° |
| 2026-05-05 22:15 | 35.76920 | -92.06044 | 7967 ft | 147 kts | 289° |
| 2026-05-05 22:16 | 35.77423 | -92.07128 | 7968 ft | 148 kts | 289° |
| 2026-05-05 22:16 | 35.77931 | -92.08248 | 7971 ft | 148 kts | 289° |
| 2026-05-05 22:16 | 35.78431 | -92.09339 | 7969 ft | 149 kts | 291° |
| 2026-05-05 22:16 | 35.78940 | -92.10445 | 7973 ft | 148 kts | 289° |
| 2026-05-05 22:17 | 35.79443 | -92.11558 | 7974 ft | 149 kts | 289° |
| 2026-05-05 22:17 | 35.79949 | -92.12679 | 7972 ft | 150 kts | 289° |
| 2026-05-05 22:17 | 35.80456 | -92.13796 | 7974 ft | 149 kts | 289° |
| 2026-05-05 22:17 | 35.80966 | -92.14914 | 7971 ft | 150 kts | 289° |
| 2026-05-05 22:18 | 35.81470 | -92.16034 | 7967 ft | 149 kts | 288° |
| 2026-05-05 22:18 | 35.81960 | -92.17154 | 7966 ft | 149 kts | 290° |
| 2026-05-05 22:18 | 35.82490 | -92.18254 | 7964 ft | 149 kts | 289° |
| 2026-05-05 22:18 | 35.83001 | -92.19358 | 7965 ft | 148 kts | 289° |
| 2026-05-05 22:19 | 35.83502 | -92.20465 | 7964 ft | 148 kts | 289° |
| 2026-05-05 22:19 | 35.84005 | -92.21573 | 7965 ft | 148 kts | 289° |
| 2026-05-05 22:19 | 35.84508 | -92.22679 | 7962 ft | 147 kts | 289° |
| 2026-05-05 22:19 | 35.85004 | -92.23774 | 7961 ft | 146 kts | 289° |
| 2026-05-05 22:20 | 35.85498 | -92.24861 | 7958 ft | 145 kts | 289° |
| 2026-05-05 22:20 | 35.85990 | -92.25947 | 7957 ft | 146 kts | 289° |
| 2026-05-05 22:20 | 35.86483 | -92.27043 | 7955 ft | 145 kts | 288° |
| 2026-05-05 22:20 | 35.86976 | -92.28129 | 7954 ft | 145 kts | 289° |
| 2026-05-05 22:21 | 35.87472 | -92.29209 | 7958 ft | 144 kts | 288° |
| 2026-05-05 22:21 | 35.87964 | -92.30289 | 7957 ft | 145 kts | 288° |
| 2026-05-05 22:21 | 35.88450 | -92.31360 | 7958 ft | 143 kts | 288° |
| 2026-05-05 22:21 | 35.88938 | -92.32438 | 7958 ft | 145 kts | 288° |
| 2026-05-05 22:22 | 35.89430 | -92.33524 | 7961 ft | 145 kts | 288° |
| 2026-05-05 22:22 | 35.89922 | -92.34605 | 7959 ft | 144 kts | 288° |
| 2026-05-05 22:22 | 35.90397 | -92.35649 | 7958 ft | 134 kts | 288° |
| 2026-05-05 22:22 | 35.90865 | -92.36670 | 7957 ft | 139 kts | 287° |
| 2026-05-05 22:23 | 35.91332 | -92.37729 | 7951 ft | 142 kts | 288° |
| 2026-05-05 22:23 | 35.91803 | -92.38777 | 7954 ft | 139 kts | 288° |
| 2026-05-05 22:23 | 35.92282 | -92.39822 | 7953 ft | 141 kts | 288° |
| 2026-05-05 22:23 | 35.92759 | -92.40874 | 7959 ft | 141 kts | 288° |
| 2026-05-05 22:24 | 35.93242 | -92.41943 | 7955 ft | 143 kts | 288° |
| 2026-05-05 22:24 | 35.93723 | -92.43007 | 7961 ft | 142 kts | 288° |
| 2026-05-05 22:24 | 35.94202 | -92.44071 | 7957 ft | 142 kts | 288° |
| 2026-05-05 22:24 | 35.94687 | -92.45130 | 7954 ft | 142 kts | 288° |
| 2026-05-05 22:25 | 35.95165 | -92.46197 | 7950 ft | 142 kts | 288° |
| 2026-05-05 22:25 | 35.95650 | -92.47262 | 7958 ft | 143 kts | 288° |
| 2026-05-05 22:25 | 35.96131 | -92.48334 | 7962 ft | 144 kts | 288° |
| 2026-05-05 22:25 | 35.96606 | -92.49406 | 7964 ft | 141 kts | 288° |
| 2026-05-05 22:26 | 35.97087 | -92.50446 | 7961 ft | 141 kts | 288° |
| 2026-05-05 22:26 | 35.97569 | -92.51520 | 7961 ft | 141 kts | 288° |
| 2026-05-05 22:26 | 35.98046 | -92.52579 | 7962 ft | 141 kts | 288° |
| 2026-05-05 22:26 | 35.98516 | -92.53629 | 7967 ft | 143 kts | 288° |
| 2026-05-05 22:27 | 35.99007 | -92.54714 | 7968 ft | 143 kts | 288° |
| 2026-05-05 22:27 | 35.99487 | -92.55778 | 7971 ft | 145 kts | 288° |
| 2026-05-05 22:27 | 35.99973 | -92.56862 | 7971 ft | 143 kts | 288° |
| 2026-05-05 22:27 | 36.00464 | -92.57944 | 7972 ft | 146 kts | 288° |
| 2026-05-05 22:28 | 36.00946 | -92.59035 | 7971 ft | 143 kts | 288° |
| 2026-05-05 22:28 | 36.01438 | -92.60109 | 7968 ft | 143 kts | 289° |
| 2026-05-05 22:28 | 36.01925 | -92.61184 | 7975 ft | 145 kts | 288° |
| 2026-05-05 22:28 | 36.02398 | -92.62274 | 7974 ft | 145 kts | 288° |
| 2026-05-05 22:29 | 36.02894 | -92.63364 | 7971 ft | 144 kts | 288° |
| 2026-05-05 22:29 | 36.03388 | -92.64446 | 7973 ft | 145 kts | 288° |
| 2026-05-05 22:29 | 36.03879 | -92.65531 | 7974 ft | 144 kts | 288° |
| 2026-05-05 22:29 | 36.04364 | -92.66617 | 7977 ft | 145 kts | 288° |
| 2026-05-05 22:30 | 36.04852 | -92.67709 | 7982 ft | 145 kts | 288° |
| 2026-05-05 22:30 | 36.05341 | -92.68800 | 7984 ft | 145 kts | 288° |
| 2026-05-05 22:30 | 36.05835 | -92.69895 | 7977 ft | 146 kts | 288° |
| 2026-05-05 22:30 | 36.06323 | -92.70983 | 7979 ft | 145 kts | 288° |
| 2026-05-05 22:31 | 36.06807 | -92.72069 | 7980 ft | 144 kts | 288° |
| 2026-05-05 22:31 | 36.07293 | -92.73153 | 7980 ft | 144 kts | 288° |
| 2026-05-05 22:31 | 36.07779 | -92.74238 | 7979 ft | 144 kts | 288° |
| 2026-05-05 22:31 | 36.08266 | -92.75325 | 7976 ft | 144 kts | 288° |
| 2026-05-05 22:32 | 36.08750 | -92.76407 | 7981 ft | 145 kts | 288° |
| 2026-05-05 22:32 | 36.09240 | -92.77497 | 7975 ft | 145 kts | 288° |
| 2026-05-05 22:32 | 36.09698 | -92.78582 | 7968 ft | 137 kts | 277° |
| 2026-05-05 22:32 | 36.09613 | -92.79710 | 7802 ft | 136 kts | 249° |
| 2026-05-05 22:33 | 36.09288 | -92.80836 | 7562 ft | 141 kts | 248° |
| 2026-05-05 22:33 | 36.08959 | -92.81989 | 7314 ft | 143 kts | 248° |
| 2026-05-05 22:33 | 36.08624 | -92.83153 | 7081 ft | 145 kts | 248° |
| 2026-05-05 22:33 | 36.08295 | -92.84309 | 6842 ft | 140 kts | 248° |
| 2026-05-05 22:34 | 36.07980 | -92.85432 | 6602 ft | 137 kts | 248° |
| 2026-05-05 22:34 | 36.07686 | -92.86515 | 6357 ft | 129 kts | 249° |
| 2026-05-05 22:34 | 36.07405 | -92.87548 | 6108 ft | 125 kts | 248° |
| 2026-05-05 22:34 | 36.07137 | -92.88565 | 5856 ft | 124 kts | 248° |
| 2026-05-05 22:35 | 36.06876 | -92.89576 | 5595 ft | 122 kts | 248° |
| 2026-05-05 22:35 | 36.06637 | -92.90575 | 5343 ft | 120 kts | 249° |
| 2026-05-05 22:35 | 36.06391 | -92.91556 | 5087 ft | 119 kts | 249° |
| 2026-05-05 22:35 | 36.06188 | -92.92535 | 4850 ft | 118 kts | 251° |
| 2026-05-05 22:36 | 36.05655 | -92.93239 | 4579 ft | 120 kts | 207° |
| 2026-05-05 22:36 | 36.04984 | -92.93845 | 4233 ft | 124 kts | 232° |
| 2026-05-05 22:36 | 36.04844 | -92.94911 | 3923 ft | 131 kts | 270° |
| 2026-05-05 22:36 | 36.04943 | -92.96039 | 3644 ft | 133 kts | 269° |
| 2026-05-05 22:37 | 36.05015 | -92.97192 | 3391 ft | 134 kts | 268° |
| 2026-05-05 22:37 | 36.05109 | -92.98268 | 3363 ft | 121 kts | 269° |
| 2026-05-05 22:37 | 36.05201 | -92.99281 | 3298 ft | 117 kts | 268° |
| 2026-05-05 22:37 | 36.05285 | -93.00256 | 3195 ft | 113 kts | 273° |
| 2026-05-05 22:38 | 36.05643 | -93.01126 | 3191 ft | 116 kts | 297° |
| 2026-05-05 22:38 | 36.06096 | -93.01899 | 3193 ft | 106 kts | 291° |
| 2026-05-05 22:38 | 36.06508 | -93.02654 | 3189 ft | 105 kts | 294° |
| 2026-05-05 22:38 | 36.06930 | -93.03386 | 3189 ft | 103 kts | 294° |
| 2026-05-05 22:39 | 36.07342 | -93.04105 | 3190 ft | 101 kts | 294° |
| 2026-05-05 22:39 | 36.07747 | -93.04856 | 3215 ft | 114 kts | 292° |
| 2026-05-05 22:39 | 36.08190 | -93.05735 | 3260 ft | 128 kts | 293° |
| 2026-05-05 22:39 | 36.08681 | -93.06662 | 3237 ft | 131 kts | 294° |
| 2026-05-05 22:40 | 36.09186 | -93.07599 | 3219 ft | 132 kts | 294° |
| 2026-05-05 22:40 | 36.09692 | -93.08530 | 3218 ft | 124 kts | 294° |
| 2026-05-05 22:40 | 36.10177 | -93.09378 | 3197 ft | 119 kts | 296° |
| 2026-05-05 22:40 | 36.10586 | -93.10165 | 3178 ft | 101 kts | 289° |
| 2026-05-05 22:41 | 36.11002 | -93.10860 | 3144 ft | 103 kts | 298° |
| 2026-05-05 22:41 | 36.11517 | -93.11439 | 3206 ft | 96 kts | 299° |
| 2026-05-05 22:41 | 36.12024 | -93.11971 | 3193 ft | 95 kts | 304° |
| 2026-05-05 22:41 | 36.12500 | -93.12548 | 3225 ft | 102 kts | 303° |
| 2026-05-05 22:42 | 36.13068 | -93.13191 | 3236 ft | 117 kts | 304° |
| 2026-05-05 22:42 | 36.13709 | -93.13860 | 3243 ft | 122 kts | 308° |
| 2026-05-05 22:42 | 36.14369 | -93.14537 | 3239 ft | 125 kts | 309° |
| 2026-05-05 22:42 | 36.15018 | -93.15265 | 3240 ft | 128 kts | 307° |
| 2026-05-05 22:43 | 36.15694 | -93.15983 | 3239 ft | 127 kts | 311° |
| 2026-05-05 22:43 | 36.16574 | -93.16251 | 3165 ft | 144 kts | 6° |
| 2026-05-05 22:43 | 36.17602 | -93.16092 | 2988 ft | 154 kts | 357° |
| 2026-05-05 22:43 | 36.18644 | -93.16037 | 2791 ft | 138 kts | 359° |
| 2026-05-05 22:44 | 36.19513 | -93.15959 | 2612 ft | 116 kts | 356° |
| 2026-05-05 22:44 | 36.20265 | -93.15930 | 2458 ft | 99 kts | 354° |
| 2026-05-05 22:44 | 36.20926 | -93.15898 | 2330 ft | 92 kts | 359° |
| 2026-05-05 22:44 | 36.21532 | -93.15853 | 2205 ft | 82 kts | 0° |
| 2026-05-05 22:45 | 36.22105 | -93.15812 | 2066 ft | 80 kts | 3° |
| 2026-05-05 22:45 | 36.22658 | -93.15787 | 1940 ft | 79 kts | 1° |
| 2026-05-05 22:45 | 36.23192 | -93.15758 | 1842 ft | 79 kts | 359° |
| 2026-05-05 22:45 | 36.23722 | -93.15725 | 1723 ft | 74 kts | 4° |
| 2026-05-05 22:46 | 36.24218 | -93.15706 | 1640 ft | 70 kts | 358° |
| 2026-05-05 22:46 | 36.24710 | -93.15637 | 1554 ft | 72 kts | 2° |
| 2026-05-05 22:46 | 36.25183 | -93.15592 | 1422 ft | 63 kts | 4° |
| 2026-05-05 22:46 | 36.25610 | -93.15542 | 1361 ft | 57 kts | 6° |
| 2026-05-05 22:47 | 36.25925 | -93.15502 | 1356 ft | 38 kts | 5° |
| 2026-05-05 22:47 | 36.26197 | -93.15472 | 1356 ft | 43 kts | 5° |
| 2026-05-05 22:47 | 36.26435 | -93.15420 | 1359 ft | 21 kts | 64° |
| 2026-05-05 22:47 | 36.26431 | -93.15266 | 1360 ft | 14 kts | 99° |
| 2026-05-05 22:48 | 36.26414 | -93.15227 | 1360 ft | 0 kts | 205° |